Terminal Aerodrome Forecast
Issued by NWS

Home | Current Version | Previous Version | Text Only | Print | Product List | Glossary On
Versions: 1 2 3 4 5 6 7 8 9 10 11 12 13 14
000
FTUS45 KABQ 171200 AAA
TAFAEG
TAF AMD
KAEG 171253Z 1713/1812 VRB05KT P6SM VCSH SCT025 BKN090
      TEMPO 1715/1719 6SM -RA BR BKN025
     FM171900 12007KT P6SM SCT025 BKN100
     FM172300 12007KT P6SM VCSH SCT030 BKN060=

USA.gov is the U.S. government's official web portal to all federal, state and local government web resources and services.